sensor_id;sensor_type;location;lat;lon;timestamp;P1;durP1;ratioP1;P2;durP2;ratioP2
6519;SDS011;3293;51.690;5.982;2022-08-19T00:02:57;13.82;;;12.43;;
6519;SDS011;3293;51.690;5.982;2022-08-19T00:07:57;13.75;;;12.45;;
6519;SDS011;3293;51.690;5.982;2022-08-19T00:12:57;13.40;;;12.10;;
6519;SDS011;3293;51.690;5.982;2022-08-19T00:17:57;13.43;;;12.13;;
6519;SDS011;3293;51.690;5.982;2022-08-19T00:22:57;16.15;;;12.27;;
6519;SDS011;3293;51.690;5.982;2022-08-19T00:27:57;14.27;;;12.90;;
6519;SDS011;3293;51.690;5.982;2022-08-19T00:32:58;13.23;;;11.93;;
6519;SDS011;3293;51.690;5.982;2022-08-19T00:37:58;14.77;;;13.20;;
6519;SDS011;3293;51.690;5.982;2022-08-19T00:42:59;13.70;;;12.40;;
6519;SDS011;3293;51.690;5.982;2022-08-19T00:47:59;14.20;;;12.88;;
6519;SDS011;3293;51.690;5.982;2022-08-19T00:53:02;16.67;;;15.07;;
6519;SDS011;3293;51.690;5.982;2022-08-19T00:58:04;16.17;;;13.90;;
6519;SDS011;3293;51.690;5.982;2022-08-19T01:03:10;16.13;;;14.43;;
6519;SDS011;3293;51.690;5.982;2022-08-19T01:08:12;17.45;;;13.93;;
6519;SDS011;3293;51.690;5.982;2022-08-19T01:13:15;17.15;;;15.10;;
6519;SDS011;3293;51.690;5.982;2022-08-19T01:18:18;15.83;;;14.33;;
6519;SDS011;3293;51.690;5.982;2022-08-19T01:23:19;17.60;;;15.77;;
6519;SDS011;3293;51.690;5.982;2022-08-19T01:28:25;16.42;;;14.73;;
6519;SDS011;3293;51.690;5.982;2022-08-19T01:33:26;17.30;;;15.57;;
6519;SDS011;3293;51.690;5.982;2022-08-19T01:38:26;18.83;;;16.90;;
6519;SDS011;3293;51.690;5.982;2022-08-19T01:43:30;19.47;;;17.40;;
6519;SDS011;3293;51.690;5.982;2022-08-19T01:48:36;19.63;;;17.63;;
6519;SDS011;3293;51.690;5.982;2022-08-19T01:53:37;17.65;;;15.95;;
6519;SDS011;3293;51.690;5.982;2022-08-19T01:58:39;18.38;;;16.33;;
6519;SDS011;3293;51.690;5.982;2022-08-19T02:03:42;18.20;;;16.50;;
6519;SDS011;3293;51.690;5.982;2022-08-19T02:08:43;20.53;;;18.47;;
6519;SDS011;3293;51.690;5.982;2022-08-19T02:13:45;20.75;;;18.70;;
6519;SDS011;3293;51.690;5.982;2022-08-19T02:18:45;19.15;;;17.23;;
6519;SDS011;3293;51.690;5.982;2022-08-19T02:23:48;18.25;;;16.45;;
6519;SDS011;3293;51.690;5.982;2022-08-19T02:28:49;19.50;;;17.60;;
6519;SDS011;3293;51.690;5.982;2022-08-19T02:33:49;17.00;;;15.25;;
6519;SDS011;3293;51.690;5.982;2022-08-19T02:38:49;18.17;;;16.30;;
6519;SDS011;3293;51.690;5.982;2022-08-19T02:43:49;16.92;;;15.32;;
6519;SDS011;3293;51.690;5.982;2022-08-19T02:48:53;19.63;;;16.93;;
6519;SDS011;3293;51.690;5.982;2022-08-19T02:53:56;19.23;;;17.33;;
6519;SDS011;3293;51.690;5.982;2022-08-19T02:58:56;20.27;;;18.27;;
6519;SDS011;3293;51.690;5.982;2022-08-19T03:03:58;35.33;;;31.53;;
6519;SDS011;3293;51.690;5.982;2022-08-19T03:09:02;43.20;;;35.67;;
6519;SDS011;3293;51.690;5.982;2022-08-19T03:14:03;40.93;;;35.43;;
6519;SDS011;3293;51.690;5.982;2022-08-19T03:19:03;39.20;;;35.00;;
6519;SDS011;3293;51.690;5.982;2022-08-19T03:24:05;41.40;;;34.10;;
6519;SDS011;3293;51.690;5.982;2022-08-19T03:29:06;41.73;;;34.20;;
6519;SDS011;3293;51.690;5.982;2022-08-19T03:34:09;43.73;;;36.03;;
6519;SDS011;3293;51.690;5.982;2022-08-19T03:39:10;40.90;;;36.40;;
6519;SDS011;3293;51.690;5.982;2022-08-19T03:44:14;40.60;;;35.50;;
6519;SDS011;3293;51.690;5.982;2022-08-19T03:49:17;47.60;;;38.67;;
6519;SDS011;3293;51.690;5.982;2022-08-19T03:54:19;53.53;;;41.37;;
6519;SDS011;3293;51.690;5.982;2022-08-19T03:59:24;53.80;;;40.27;;
6519;SDS011;3293;51.690;5.982;2022-08-19T04:04:29;49.23;;;39.10;;
6519;SDS011;3293;51.690;5.982;2022-08-19T04:09:29;43.03;;;36.77;;
6519;SDS011;3293;51.690;5.982;2022-08-19T04:14:29;51.47;;;39.93;;
6519;SDS011;3293;51.690;5.982;2022-08-19T04:19:29;48.83;;;38.00;;
6519;SDS011;3293;51.690;5.982;2022-08-19T04:24:30;49.33;;;38.50;;
6519;SDS011;3293;51.690;5.982;2022-08-19T04:29:31;54.17;;;41.10;;
6519;SDS011;3293;51.690;5.982;2022-08-19T04:34:31;51.10;;;38.03;;
6519;SDS011;3293;51.690;5.982;2022-08-19T04:39:31;56.03;;;38.63;;
6519;SDS011;3293;51.690;5.982;2022-08-19T04:44:50;49.20;;;38.93;;
6519;SDS011;3293;51.690;5.982;2022-08-19T04:49:50;54.67;;;38.90;;
6519;SDS011;3293;51.690;5.982;2022-08-19T04:54:50;53.60;;;39.33;;
6519;SDS011;3293;51.690;5.982;2022-08-19T04:59:53;63.20;;;41.73;;
6519;SDS011;3293;51.690;5.982;2022-08-19T05:04:57;61.77;;;43.73;;
6519;SDS011;3293;51.690;5.982;2022-08-19T05:10:00;62.77;;;42.37;;
6519;SDS011;3293;51.690;5.982;2022-08-19T05:15:01;51.23;;;41.20;;
6519;SDS011;3293;51.690;5.982;2022-08-19T05:20:04;46.43;;;37.27;;
6519;SDS011;3293;51.690;5.982;2022-08-19T05:25:24;49.63;;;35.90;;
6519;SDS011;3293;51.690;5.982;2022-08-19T05:30:25;69.80;;;46.00;;
6519;SDS011;3293;51.690;5.982;2022-08-19T05:35:25;52.33;;;38.27;;
6519;SDS011;3293;51.690;5.982;2022-08-19T05:40:25;55.28;;;40.60;;
6519;SDS011;3293;51.690;5.982;2022-08-19T05:45:25;48.08;;;38.25;;
6519;SDS011;3293;51.690;5.982;2022-08-19T05:50:25;42.38;;;32.58;;
6519;SDS011;3293;51.690;5.982;2022-08-19T05:55:25;39.20;;;31.02;;
6519;SDS011;3293;51.690;5.982;2022-08-19T06:00:25;35.55;;;30.70;;
6519;SDS011;3293;51.690;5.982;2022-08-19T06:05:25;33.95;;;29.27;;
6519;SDS011;3293;51.690;5.982;2022-08-19T06:10:25;31.83;;;27.42;;
6519;SDS011;3293;51.690;5.982;2022-08-19T06:15:26;29.35;;;26.20;;
6519;SDS011;3293;51.690;5.982;2022-08-19T06:20:26;30.48;;;27.17;;
6519;SDS011;3293;51.690;5.982;2022-08-19T06:25:26;32.13;;;28.73;;
6519;SDS011;3293;51.690;5.982;2022-08-19T06:30:26;36.08;;;31.33;;
6519;SDS011;3293;51.690;5.982;2022-08-19T06:35:26;39.58;;;32.22;;
6519;SDS011;3293;51.690;5.982;2022-08-19T06:40:28;41.20;;;33.67;;
6519;SDS011;3293;51.690;5.982;2022-08-19T06:45:28;40.58;;;34.15;;
6519;SDS011;3293;51.690;5.982;2022-08-19T06:50:29;43.10;;;37.35;;
6519;SDS011;3293;51.690;5.982;2022-08-19T06:55:29;42.90;;;36.30;;
6519;SDS011;3293;51.690;5.982;2022-08-19T07:00:30;43.42;;;36.33;;
6519;SDS011;3293;51.690;5.982;2022-08-19T07:05:30;48.03;;;36.53;;
6519;SDS011;3293;51.690;5.982;2022-08-19T07:10:30;40.65;;;34.95;;
6519;SDS011;3293;51.690;5.982;2022-08-19T07:15:31;37.83;;;33.33;;
6519;SDS011;3293;51.690;5.982;2022-08-19T07:20:31;38.22;;;31.23;;
6519;SDS011;3293;51.690;5.982;2022-08-19T07:25:32;40.92;;;32.40;;
6519;SDS011;3293;51.690;5.982;2022-08-19T07:30:31;38.17;;;29.63;;
6519;SDS011;3293;51.690;5.982;2022-08-19T07:35:31;36.92;;;30.17;;
6519;SDS011;3293;51.690;5.982;2022-08-19T07:40:31;30.35;;;27.23;;
6519;SDS011;3293;51.690;5.982;2022-08-19T07:45:31;33.20;;;29.15;;
6519;SDS011;3293;51.690;5.982;2022-08-19T07:50:31;32.25;;;28.42;;
6519;SDS011;3293;51.690;5.982;2022-08-19T07:55:32;33.20;;;28.73;;
6519;SDS011;3293;51.690;5.982;2022-08-19T08:00:33;32.53;;;27.70;;
6519;SDS011;3293;51.690;5.982;2022-08-19T08:05:34;32.58;;;27.40;;
6519;SDS011;3293;51.690;5.982;2022-08-19T08:10:53;29.85;;;26.60;;
6519;SDS011;3293;51.690;5.982;2022-08-19T08:15:53;28.75;;;25.77;;
6519;SDS011;3293;51.690;5.982;2022-08-19T08:20:53;27.88;;;22.73;;
6519;SDS011;3293;51.690;5.982;2022-08-19T08:25:55;29.42;;;23.80;;
6519;SDS011;3293;51.690;5.982;2022-08-19T08:30:56;23.40;;;20.90;;
6519;SDS011;3293;51.690;5.982;2022-08-19T08:35:57;26.02;;;22.90;;
6519;SDS011;3293;51.690;5.982;2022-08-19T08:40:58;25.67;;;22.95;;
6519;SDS011;3293;51.690;5.982;2022-08-19T08:46:08;26.05;;;21.60;;
6519;SDS011;3293;51.690;5.982;2022-08-19T08:56:52;28.27;;;22.10;;
6519;SDS011;3293;51.690;5.982;2022-08-19T09:01:53;22.77;;;19.98;;
6519;SDS011;3293;51.690;5.982;2022-08-19T09:07:01;23.33;;;20.85;;
6519;SDS011;3293;51.690;5.982;2022-08-19T09:17:38;20.80;;;17.65;;
6519;SDS011;3293;51.690;5.982;2022-08-19T09:22:39;17.55;;;15.75;;
6519;SDS011;3293;51.690;5.982;2022-08-19T09:27:43;17.60;;;15.70;;
6519;SDS011;3293;51.690;5.982;2022-08-19T09:32:43;21.73;;;15.48;;
6519;SDS011;3293;51.690;5.982;2022-08-19T09:37:44;15.98;;;13.77;;
6519;SDS011;3293;51.690;5.982;2022-08-19T09:42:44;16.92;;;12.27;;
6519;SDS011;3293;51.690;5.982;2022-08-19T09:47:47;14.02;;;10.13;;
6519;SDS011;3293;51.690;5.982;2022-08-19T09:52:48;9.32;;;8.38;;
6519;SDS011;3293;51.690;5.982;2022-08-19T09:57:48;12.95;;;10.00;;
6519;SDS011;3293;51.690;5.982;2022-08-19T10:02:48;15.43;;;12.98;;
6519;SDS011;3293;51.690;5.982;2022-08-19T10:07:48;18.23;;;14.13;;
6519;SDS011;3293;51.690;5.982;2022-08-19T10:12:47;22.45;;;20.15;;
6519;SDS011;3293;51.690;5.982;2022-08-19T10:17:47;26.83;;;23.10;;
6519;SDS011;3293;51.690;5.982;2022-08-19T10:22:47;25.95;;;23.05;;
6519;SDS011;3293;51.690;5.982;2022-08-19T10:27:47;29.65;;;24.38;;
6519;SDS011;3293;51.690;5.982;2022-08-19T10:32:47;35.28;;;28.15;;
6519;SDS011;3293;51.690;5.982;2022-08-19T10:37:47;32.35;;;26.23;;
6519;SDS011;3293;51.690;5.982;2022-08-19T10:42:47;26.83;;;22.95;;
6519;SDS011;3293;51.690;5.982;2022-08-19T10:47:47;27.70;;;23.95;;
6519;SDS011;3293;51.690;5.982;2022-08-19T10:52:48;26.40;;;23.42;;
6519;SDS011;3293;51.690;5.982;2022-08-19T10:57:49;27.52;;;22.40;;
6519;SDS011;3293;51.690;5.982;2022-08-19T11:02:49;25.23;;;21.60;;
6519;SDS011;3293;51.690;5.982;2022-08-19T11:07:49;23.67;;;21.02;;
6519;SDS011;3293;51.690;5.982;2022-08-19T11:12:50;24.52;;;20.52;;
6519;SDS011;3293;51.690;5.982;2022-08-19T11:17:53;27.13;;;24.25;;
6519;SDS011;3293;51.690;5.982;2022-08-19T11:22:55;25.08;;;22.27;;
6519;SDS011;3293;51.690;5.982;2022-08-19T11:27:55;26.90;;;21.77;;
6519;SDS011;3293;51.690;5.982;2022-08-19T11:32:55;29.13;;;23.10;;
6519;SDS011;3293;51.690;5.982;2022-08-19T11:37:56;21.42;;;18.63;;
6519;SDS011;3293;51.690;5.982;2022-08-19T11:43:00;25.42;;;18.58;;
6519;SDS011;3293;51.690;5.982;2022-08-19T11:48:00;25.45;;;20.55;;
6519;SDS011;3293;51.690;5.982;2022-08-19T11:53:01;21.77;;;18.02;;
6519;SDS011;3293;51.690;5.982;2022-08-19T11:58:01;24.52;;;17.88;;
6519;SDS011;3293;51.690;5.982;2022-08-19T12:03:01;22.40;;;15.80;;
6519;SDS011;3293;51.690;5.982;2022-08-19T12:08:02;18.83;;;16.38;;
6519;SDS011;3293;51.690;5.982;2022-08-19T12:13:02;19.00;;;15.43;;
6519;SDS011;3293;51.690;5.982;2022-08-19T12:18:03;24.10;;;20.63;;
6519;SDS011;3293;51.690;5.982;2022-08-19T12:23:04;20.13;;;17.63;;
6519;SDS011;3293;51.690;5.982;2022-08-19T12:28:04;19.40;;;17.13;;
6519;SDS011;3293;51.690;5.982;2022-08-19T12:33:04;25.52;;;20.42;;
6519;SDS011;3293;51.690;5.982;2022-08-19T12:38:04;21.88;;;17.83;;
6519;SDS011;3293;51.690;5.982;2022-08-19T12:43:06;23.30;;;19.50;;
6519;SDS011;3293;51.690;5.982;2022-08-19T12:48:06;23.55;;;19.67;;
6519;SDS011;3293;51.690;5.982;2022-08-19T12:53:06;21.02;;;18.17;;
6519;SDS011;3293;51.690;5.982;2022-08-19T12:58:06;19.83;;;17.15;;
6519;SDS011;3293;51.690;5.982;2022-08-19T13:03:06;20.80;;;18.08;;
6519;SDS011;3293;51.690;5.982;2022-08-19T13:08:06;24.08;;;19.20;;
6519;SDS011;3293;51.690;5.982;2022-08-19T13:13:07;20.23;;;17.70;;
6519;SDS011;3293;51.690;5.982;2022-08-19T13:18:11;22.08;;;19.48;;
6519;SDS011;3293;51.690;5.982;2022-08-19T13:23:11;20.38;;;18.33;;
6519;SDS011;3293;51.690;5.982;2022-08-19T13:28:12;18.20;;;15.35;;
6519;SDS011;3293;51.690;5.982;2022-08-19T13:33:12;24.17;;;19.50;;
6519;SDS011;3293;51.690;5.982;2022-08-19T13:38:14;20.90;;;16.73;;
6519;SDS011;3293;51.690;5.982;2022-08-19T13:43:20;16.52;;;14.32;;
6519;SDS011;3293;51.690;5.982;2022-08-19T13:48:23;19.50;;;15.93;;
6519;SDS011;3293;51.690;5.982;2022-08-19T13:53:25;19.35;;;16.75;;
6519;SDS011;3293;51.690;5.982;2022-08-19T13:58:25;21.73;;;16.83;;
6519;SDS011;3293;51.690;5.982;2022-08-19T14:03:25;18.17;;;14.45;;
6519;SDS011;3293;51.690;5.982;2022-08-19T14:08:26;15.15;;;13.55;;
6519;SDS011;3293;51.690;5.982;2022-08-19T14:13:27;15.57;;;13.82;;
6519;SDS011;3293;51.690;5.982;2022-08-19T14:18:27;16.95;;;14.55;;
6519;SDS011;3293;51.690;5.982;2022-08-19T14:23:27;20.10;;;14.65;;
6519;SDS011;3293;51.690;5.982;2022-08-19T14:28:27;20.95;;;16.75;;
6519;SDS011;3293;51.690;5.982;2022-08-19T14:33:27;24.70;;;18.35;;
6519;SDS011;3293;51.690;5.982;2022-08-19T14:38:27;21.45;;;17.85;;
6519;SDS011;3293;51.690;5.982;2022-08-19T14:43:30;25.83;;;19.65;;
6519;SDS011;3293;51.690;5.982;2022-08-19T14:48:30;20.55;;;17.98;;
6519;SDS011;3293;51.690;5.982;2022-08-19T14:53:30;22.92;;;18.77;;
6519;SDS011;3293;51.690;5.982;2022-08-19T14:58:30;23.65;;;20.50;;
6519;SDS011;3293;51.690;5.982;2022-08-19T15:03:30;23.75;;;19.70;;
6519;SDS011;3293;51.690;5.982;2022-08-19T15:08:31;24.20;;;21.15;;
6519;SDS011;3293;51.690;5.982;2022-08-19T15:13:34;30.13;;;24.02;;
6519;SDS011;3293;51.690;5.982;2022-08-19T15:18:35;24.83;;;21.58;;
6519;SDS011;3293;51.690;5.982;2022-08-19T15:23:35;20.05;;;17.17;;
6519;SDS011;3293;51.690;5.982;2022-08-19T15:28:36;17.63;;;15.23;;
6519;SDS011;3293;51.690;5.982;2022-08-19T15:33:36;10.57;;;9.48;;
6519;SDS011;3293;51.690;5.982;2022-08-19T15:38:36;8.73;;;7.07;;
6519;SDS011;3293;51.690;5.982;2022-08-19T15:43:36;6.15;;;5.55;;
6519;SDS011;3293;51.690;5.982;2022-08-19T15:48:41;9.23;;;6.90;;
6519;SDS011;3293;51.690;5.982;2022-08-19T15:53:41;8.40;;;6.93;;
6519;SDS011;3293;51.690;5.982;2022-08-19T15:58:41;11.13;;;8.40;;
6519;SDS011;3293;51.690;5.982;2022-08-19T16:04:01;8.88;;;7.70;;
6519;SDS011;3293;51.690;5.982;2022-08-19T16:09:20;12.45;;;10.20;;
6519;SDS011;3293;51.690;5.982;2022-08-19T16:14:22;13.75;;;11.57;;
6519;SDS011;3293;51.690;5.982;2022-08-19T16:19:23;14.77;;;13.15;;
6519;SDS011;3293;51.690;5.982;2022-08-19T16:24:24;13.50;;;12.15;;
6519;SDS011;3293;51.690;5.982;2022-08-19T16:29:26;18.35;;;13.60;;
6519;SDS011;3293;51.690;5.982;2022-08-19T16:34:26;19.42;;;14.57;;
6519;SDS011;3293;51.690;5.982;2022-08-19T16:39:26;17.07;;;15.03;;
6519;SDS011;3293;51.690;5.982;2022-08-19T16:44:26;17.63;;;14.27;;
6519;SDS011;3293;51.690;5.982;2022-08-19T16:49:27;17.50;;;14.13;;
6519;SDS011;3293;51.690;5.982;2022-08-19T16:54:28;16.40;;;13.93;;
6519;SDS011;3293;51.690;5.982;2022-08-19T16:59:27;16.85;;;14.77;;
6519;SDS011;3293;51.690;5.982;2022-08-19T17:04:27;17.17;;;13.88;;
6519;SDS011;3293;51.690;5.982;2022-08-19T17:09:27;18.10;;;14.02;;
6519;SDS011;3293;51.690;5.982;2022-08-19T17:14:28;17.95;;;13.85;;
6519;SDS011;3293;51.690;5.982;2022-08-19T17:19:28;18.15;;;14.23;;
6519;SDS011;3293;51.690;5.982;2022-08-19T17:24:28;19.90;;;15.75;;
6519;SDS011;3293;51.690;5.982;2022-08-19T17:29:28;18.08;;;14.50;;
6519;SDS011;3293;51.690;5.982;2022-08-19T17:34:28;24.92;;;15.20;;
6519;SDS011;3293;51.690;5.982;2022-08-19T17:39:28;21.42;;;15.57;;
6519;SDS011;3293;51.690;5.982;2022-08-19T17:44:29;21.13;;;15.25;;
6519;SDS011;3293;51.690;5.982;2022-08-19T17:49:30;24.05;;;15.85;;
6519;SDS011;3293;51.690;5.982;2022-08-19T17:54:30;25.58;;;16.13;;
6519;SDS011;3293;51.690;5.982;2022-08-19T17:59:30;25.67;;;17.10;;
6519;SDS011;3293;51.690;5.982;2022-08-19T18:04:30;23.05;;;15.70;;
6519;SDS011;3293;51.690;5.982;2022-08-19T18:09:32;24.90;;;16.85;;
6519;SDS011;3293;51.690;5.982;2022-08-19T18:14:36;26.63;;;17.85;;
6519;SDS011;3293;51.690;5.982;2022-08-19T18:19:38;28.95;;;18.88;;
6519;SDS011;3293;51.690;5.982;2022-08-19T18:24:39;27.13;;;19.35;;
6519;SDS011;3293;51.690;5.982;2022-08-19T18:29:40;27.10;;;18.83;;
6519;SDS011;3293;51.690;5.982;2022-08-19T18:34:40;24.92;;;17.15;;
6519;SDS011;3293;51.690;5.982;2022-08-19T18:39:41;23.98;;;18.05;;
6519;SDS011;3293;51.690;5.982;2022-08-19T18:44:59;26.55;;;18.38;;
6519;SDS011;3293;51.690;5.982;2022-08-19T18:50:18;24.02;;;17.65;;
6519;SDS011;3293;51.690;5.982;2022-08-19T18:55:18;27.20;;;17.85;;
6519;SDS011;3293;51.690;5.982;2022-08-19T19:00:18;26.27;;;18.50;;
6519;SDS011;3293;51.690;5.982;2022-08-19T19:05:18;22.65;;;16.52;;
6519;SDS011;3293;51.690;5.982;2022-08-19T19:10:19;26.17;;;18.48;;
6519;SDS011;3293;51.690;5.982;2022-08-19T19:15:19;23.27;;;16.13;;
6519;SDS011;3293;51.690;5.982;2022-08-19T19:20:19;27.80;;;19.63;;
6519;SDS011;3293;51.690;5.982;2022-08-19T19:25:19;29.38;;;20.38;;
6519;SDS011;3293;51.690;5.982;2022-08-19T19:30:19;23.02;;;17.45;;
6519;SDS011;3293;51.690;5.982;2022-08-19T19:35:24;27.00;;;19.75;;
6519;SDS011;3293;51.690;5.982;2022-08-19T19:40:24;22.00;;;18.23;;
6519;SDS011;3293;51.690;5.982;2022-08-19T19:45:26;26.15;;;18.75;;
6519;SDS011;3293;51.690;5.982;2022-08-19T19:50:26;26.58;;;17.88;;
6519;SDS011;3293;51.690;5.982;2022-08-19T19:55:29;22.27;;;16.52;;
6519;SDS011;3293;51.690;5.982;2022-08-19T20:00:29;21.52;;;15.80;;
6519;SDS011;3293;51.690;5.982;2022-08-19T20:05:29;19.58;;;15.38;;
6519;SDS011;3293;51.690;5.982;2022-08-19T20:10:29;19.85;;;15.93;;
6519;SDS011;3293;51.690;5.982;2022-08-19T20:15:30;21.90;;;17.30;;
6519;SDS011;3293;51.690;5.982;2022-08-19T20:20:31;20.90;;;15.60;;
6519;SDS011;3293;51.690;5.982;2022-08-19T20:25:31;21.73;;;16.17;;
6519;SDS011;3293;51.690;5.982;2022-08-19T20:30:32;22.05;;;17.23;;
6519;SDS011;3293;51.690;5.982;2022-08-19T20:35:33;20.35;;;16.20;;
6519;SDS011;3293;51.690;5.982;2022-08-19T20:40:34;18.45;;;14.70;;
6519;SDS011;3293;51.690;5.982;2022-08-19T20:45:36;21.00;;;14.68;;
6519;SDS011;3293;51.690;5.982;2022-08-19T20:50:36;18.85;;;14.30;;
6519;SDS011;3293;51.690;5.982;2022-08-19T20:55:37;18.05;;;14.93;;
6519;SDS011;3293;51.690;5.982;2022-08-19T21:00:40;19.38;;;14.70;;
6519;SDS011;3293;51.690;5.982;2022-08-19T21:05:44;16.95;;;13.57;;
6519;SDS011;3293;51.690;5.982;2022-08-19T21:10:45;20.77;;;15.52;;
6519;SDS011;3293;51.690;5.982;2022-08-19T21:15:46;17.00;;;13.20;;
6519;SDS011;3293;51.690;5.982;2022-08-19T21:20:46;15.35;;;12.82;;
6519;SDS011;3293;51.690;5.982;2022-08-19T21:25:47;18.70;;;13.95;;
6519;SDS011;3293;51.690;5.982;2022-08-19T21:30:47;17.45;;;14.35;;
6519;SDS011;3293;51.690;5.982;2022-08-19T21:35:47;19.70;;;13.80;;
6519;SDS011;3293;51.690;5.982;2022-08-19T21:40:47;17.55;;;14.25;;
6519;SDS011;3293;51.690;5.982;2022-08-19T21:45:47;18.83;;;14.75;;
6519;SDS011;3293;51.690;5.982;2022-08-19T21:50:48;18.55;;;14.98;;
6519;SDS011;3293;51.690;5.982;2022-08-19T21:55:49;15.50;;;12.90;;
6519;SDS011;3293;51.690;5.982;2022-08-19T22:00:50;21.88;;;15.25;;
6519;SDS011;3293;51.690;5.982;2022-08-19T22:05:52;16.48;;;13.30;;
6519;SDS011;3293;51.690;5.982;2022-08-19T22:10:52;16.63;;;13.50;;
6519;SDS011;3293;51.690;5.982;2022-08-19T22:15:52;20.05;;;14.82;;
6519;SDS011;3293;51.690;5.982;2022-08-19T22:20:53;16.38;;;13.68;;
6519;SDS011;3293;51.690;5.982;2022-08-19T22:25:53;19.05;;;14.05;;
6519;SDS011;3293;51.690;5.982;2022-08-19T22:30:53;16.90;;;13.85;;
6519;SDS011;3293;51.690;5.982;2022-08-19T22:35:54;16.95;;;13.90;;
6519;SDS011;3293;51.690;5.982;2022-08-19T22:40:54;20.00;;;15.68;;
6519;SDS011;3293;51.690;5.982;2022-08-19T22:45:55;21.05;;;16.17;;
6519;SDS011;3293;51.690;5.982;2022-08-19T22:50:56;18.83;;;14.80;;
6519;SDS011;3293;51.690;5.982;2022-08-19T22:56:16;18.58;;;13.93;;
6519;SDS011;3293;51.690;5.982;2022-08-19T23:01:18;23.02;;;15.77;;
6519;SDS011;3293;51.690;5.982;2022-08-19T23:06:20;20.77;;;15.30;;
6519;SDS011;3293;51.690;5.982;2022-08-19T23:11:20;15.88;;;13.38;;
6519;SDS011;3293;51.690;5.982;2022-08-19T23:16:20;20.50;;;14.40;;
6519;SDS011;3293;51.690;5.982;2022-08-19T23:21:20;17.13;;;13.95;;
6519;SDS011;3293;51.690;5.982;2022-08-19T23:26:20;24.23;;;16.80;;
6519;SDS011;3293;51.690;5.982;2022-08-19T23:31:20;20.88;;;15.93;;
6519;SDS011;3293;51.690;5.982;2022-08-19T23:36:21;20.63;;;16.08;;
6519;SDS011;3293;51.690;5.982;2022-08-19T23:41:21;24.23;;;18.45;;
6519;SDS011;3293;51.690;5.982;2022-08-19T23:46:21;22.48;;;17.00;;
6519;SDS011;3293;51.690;5.982;2022-08-19T23:51:22;26.67;;;17.30;;
6519;SDS011;3293;51.690;5.982;2022-08-19T23:56:23;19.85;;;15.85;;
